Date,TemperatureHighF,TemperatureAvgF,TemperatureLowF,DewpointHighF,DewpointAvgF,DewpointLowF,HumidityHigh,HumidityAvg,HumidityLow,PressureMaxIn,PressureMinIn,WindSpeedMaxMPH,WindSpeedAvgMPH,GustSpeedMaxMPH,PrecipitationSumIn
2013-10-1,79,60,48,33,23,16,38,26,12,29.65,29.56,0,0,0,0.00
2013-10-2,80,64,51,34,25,18,37,25,12,29.65,29.56,4,0,4,0.08
2013-10-3,75,62,50,31,24,16,36,25,13,29.77,29.65,4,0,4,0.00
2013-10-4,78,64,56,42,32,25,37,31,15,29.74,29.62,3,0,3,0.00
2013-10-5,72,65,61,36,32,23,36,30,16,29.77,29.68,0,0,0,0.00
2013-10-6,65,62,61,46,40,34,55,44,35,29.80,29.71,3,0,3,0.00
2013-10-7,73,66,57,60,45,33,69,49,24,29.71,29.44,9,0,9,0.31
2013-10-8,66,54,47,33,19,8,48,27,13,30.00,29.62,5,0,6,0.00
2013-10-9,61,52,44,20,15,8,37,25,14,30.06,29.97,3,0,3,0.00
2013-10-10,61,54,48,25,21,18,34,28,19,29.97,29.77,0,0,0,0.00
2013-10-11,68,61,54,29,24,18,29,25,15,29.77,29.71,3,0,3,0.00
2013-10-12,73,60,52,26,18,11,26,19,12,29.97,29.74,5,0,5,0.00
2013-10-13,67,55,49,26,18,10,37,24,13,30.03,29.94,0,0,0,0.00
2013-10-14,63,52,42,24,18,11,38,27,13,30.03,29.91,0,0,0,0.00
2013-10-15,72,54,45,29,18,6,39,26,12,29.91,29.77,0,0,0,0.00
2013-10-16,64,56,46,31,21,13,35,26,16,29.77,29.59,0,0,0,0.00
2013-10-17,72,63,59,40,30,18,43,30,14,29.59,29.35,4,0,4,0.00
2013-10-18,70,60,49,41,18,4,44,21,12,29.62,29.32,5,0,6,0.00
2013-10-19,65,52,40,26,13,4,34,22,13,29.65,29.38,0,0,0,0.00
2013-10-20,67,53,41,29,13,2,36,22,12,29.71,29.38,45,0,45,0.00
2013-10-21,71,51,37,16,10,4,33,21,12,29.80,29.65,4,0,4,0.00
2013-10-22,67,52,42,26,15,8,38,24,12,29.65,29.38,5,0,5,0.00
2013-10-23,51,44,34,14,8,2,36,23,16,29.47,29.26,0,0,0,0.00
2013-10-24,59,44,35,10,4,-1,30,19,14,29.59,29.35,10,0,11,0.00
2013-10-25,55,42,32,8,2,-4,25,18,15,29.85,29.59,7,0,7,0.00
2013-10-26,54,41,30,10,5,-5,34,23,13,29.83,29.53,9,0,9,0.00
2013-10-27,62,47,35,12,4,-2,21,17,14,29.74,29.47,7,0,7,0.00
2013-10-28,64,46,31,12,6,-16,31,20,13,29.97,29.74,6,0,6,0.00
2013-10-29,50,42,35,6,2,-4,20,18,16,30.06,29.97,0,0,0,0.00
2013-10-30,56,45,35,14,5,-3,30,20,15,29.97,29.83,0,0,0,0.00
2013-10-31,63,52,38,39,23,11,44,33,24,29.88,29.47,4,0,4,0.00